Big Bear Station Historical Data
Daily Summary for January 18, 2017 Units:  English    Metric   Both
« Previous Day
Next Day »
Daily Weekly Monthly Yearly Custom
  High: Low: Average:
Temperature: 43.0 °F 16.9 °F 28.5 °F
Dew Point: 29.9 °F 14.6 °F 20.8 °F
Humidity: 97 % 36 % 76 %
Wind Speed: 6.3 mph 0.0 mph 1.7 mph
Wind Gust: -999.0 mph - -
Wind:- - WSW
Pressure: 23.52 in 23.37 in -
Precipitation: 0.05 in    
Historical Graphs
 
 
Tabular Data for January 18, 2017
Time Temperature Dew Point Pressure Wind Wind Speed Wind Gust Humidity Rainfall Rate (Hourly)
00:12 19.0 °F 17.3 °F 23.52 in Calm   -999.0 mph 93 % 0 in
00:27 18.9 °F 17.5 °F 23.52 in Calm   -999.0 mph 94 % 0 in
00:43 18.5 °F 17.3 °F 23.51 in Calm   -999.0 mph 95 % 0 in
00:58 18.3 °F 17.1 °F 23.52 in Calm   -999.0 mph 95 % 0 in
01:13 18.0 °F 16.6 °F 23.51 in Calm   -999.0 mph 94 % 0 in
01:28 18.0 °F 16.6 °F 23.51 in Calm   -999.0 mph 94 % 0 in
01:43 17.6 °F 16.4 °F 23.51 in Calm   -999.0 mph 95 % 0 in
01:59 17.6 °F 16.4 °F 23.51 in Calm   -999.0 mph 95 % 0 in
02:14 17.6 °F 16.7 °F 23.51 in Calm   -999.0 mph 96 % 0 in
02:29 17.1 °F 16.2 °F 23.51 in Calm   -999.0 mph 96 % 0 in
02:44 17.1 °F 16.2 °F 23.51 in Calm   -999.0 mph 96 % 0 in
02:59 17.1 °F 16.2 °F 23.51 in Calm   -999.0 mph 96 % 0 in
03:15 16.9 °F 16.0 °F 23.51 in Calm   -999.0 mph 96 % 0 in
03:30 16.9 °F 16.0 °F 23.50 in Calm   -999.0 mph 96 % 0 in
03:45 16.9 °F 16.0 °F 23.50 in Calm   -999.0 mph 96 % 0 in
04:00 17.1 °F 15.9 °F 23.50 in Calm   -999.0 mph 95 % 0 in
04:15 17.4 °F 16.2 °F 23.50 in Calm   -999.0 mph 95 % 0 in
04:31 17.1 °F 15.9 °F 23.51 in Calm   -999.0 mph 95 % 0 in
04:46 17.4 °F 16.5 °F 23.51 in Calm   -999.0 mph 96 % 0 in
05:01 17.1 °F 16.2 °F 23.50 in Calm   -999.0 mph 96 % 0 in
05:16 17.1 °F 15.9 °F 23.50 in Calm   -999.0 mph 95 % 0 in
05:31 17.1 °F 15.9 °F 23.50 in Calm   -999.0 mph 95 % 0 in
05:47 17.4 °F 16.2 °F 23.50 in Calm   -999.0 mph 95 % 0 in
06:02 17.2 °F 16.0 °F 23.50 in Calm   -999.0 mph 95 % 0 in
06:17 18.0 °F 17.1 °F 23.51 in Calm   -999.0 mph 96 % 0 in
06:32 17.8 °F 16.6 °F 23.50 in Calm   -999.0 mph 95 % 0 in
06:48 18.0 °F 16.8 °F 23.50 in Calm   -999.0 mph 95 % 0 in
07:03 17.6 °F 16.4 °F 23.51 in Calm   -999.0 mph 95 % 0 in
07:18 18.0 °F 16.8 °F 23.50 in Calm   -999.0 mph 95 % 0 in
07:48 18.9 °F 17.5 °F 23.50 in Calm   -999.0 mph 94 % 0 in
08:19 22.8 °F 20.0 °F 23.51 in Calm   -999.0 mph 89 % 0 in
08:34 23.5 °F 21.0 °F 23.51 in Calm   -999.0 mph 90 % 0 in
08:49 25.9 °F 22.6 °F 23.51 in Calm   -999.0 mph 87 % 0 in
09:04 28.9 °F 22.3 °F 23.51 in NNW 2.2 mph -999.0 mph 76 % 0 in
09:20 30.9 °F 22.3 °F 23.51 in WNW 1.7 mph -999.0 mph 70 % 0 in
09:35 32.7 °F 20.7 °F 23.51 in WNW 2.7 mph -999.0 mph 61 % 0 in
09:50 34.0 °F 20.8 °F 23.51 in NW 2.2 mph -999.0 mph 58 % 0 in
10:05 35.1 °F 21.0 °F 23.51 in WNW 2.2 mph -999.0 mph 56 % 0 in
10:20 35.2 °F 22.3 °F 23.52 in WNW 2.2 mph -999.0 mph 59 % 0 in
10:36 37.0 °F 20.5 °F 23.51 in ESE 2.2 mph -999.0 mph 51 % 0 in
10:51 38.7 °F 20.7 °F 23.50 in NNE 3.2 mph -999.0 mph 48 % 0 in
11:06 39.0 °F 21.9 °F 23.49 in NW 3.7 mph -999.0 mph 50 % 0 in
11:21 39.9 °F 22.3 °F 23.49 in NW 2.7 mph -999.0 mph 49 % 0 in
11:37 40.8 °F 22.6 °F 23.48 in NNW 6.3 mph -999.0 mph 48 % 0 in
11:52 40.5 °F 23.3 °F 23.48 in West 2.7 mph -999.0 mph 50 % 0 in
12:07 41.9 °F 23.1 °F 23.47 in NW 3.7 mph -999.0 mph 47 % 0 in
12:22 43.0 °F 22.0 °F 23.46 in WNW 4.7 mph -999.0 mph 43 % 0 in
12:37 41.5 °F 23.8 °F 23.45 in WNW 5.8 mph -999.0 mph 49 % 0 in
12:53 40.8 °F 22.1 °F 23.44 in NNW 3.2 mph -999.0 mph 47 % 0 in
13:08 41.2 °F 20.4 °F 23.43 in WNW 2.7 mph -999.0 mph 43 % 0 in
13:24 41.2 °F 19.3 °F 23.43 in NNW 2.2 mph -999.0 mph 41 % 0 in
13:39 40.1 °F 17.7 °F 23.43 in ENE 2.2 mph -999.0 mph 40 % 0 in
13:54 39.9 °F 16.9 °F 23.43 in WSW 2.2 mph -999.0 mph 39 % 0 in
14:09 40.3 °F 15.4 °F 23.43 in South 3.2 mph -999.0 mph 36 % 0 in
14:24 39.4 °F 14.6 °F 23.43 in NNE 1.7 mph -999.0 mph 36 % 0 in
14:40 39.9 °F 16.3 °F 23.43 in SW 2.7 mph -999.0 mph 38 % 0 in
14:55 39.9 °F 16.3 °F 23.43 in NNW 3.2 mph -999.0 mph 38 % 0 in
15:10 39.0 °F 15.5 °F 23.42 in NW 1.7 mph -999.0 mph 38 % 0 in
15:25 37.4 °F 18.0 °F 23.42 in WNW 3.2 mph -999.0 mph 45 % 0 in
15:41 36.3 °F 18.0 °F 23.42 in WNW 4.7 mph -999.0 mph 47 % 0 in
15:56 35.2 °F 18.9 °F 23.43 in NW 2.2 mph -999.0 mph 51 % 0 in
16:12 35.1 °F 19.7 °F 23.43 in NW 2.2 mph -999.0 mph 53 % 0 in
16:27 34.2 °F 21.4 °F 23.43 in SSE 2.7 mph -999.0 mph 59 % 0 in
16:42 33.8 °F 23.3 °F 23.44 in WNW 2.7 mph -999.0 mph 65 % 0 in
16:57 33.3 °F 23.2 °F 23.44 in South 1.7 mph -999.0 mph 66 % 0 in
17:13 33.1 °F 23.0 °F 23.44 in NE 1.7 mph -999.0 mph 66 % 0 in
17:28 32.7 °F 22.6 °F 23.43 in West 3.2 mph -999.0 mph 66 % 0 in
17:43 32.5 °F 23.5 °F 23.44 in NW 1.7 mph -999.0 mph 69 % 0 in
17:58 32.2 °F 23.5 °F 23.44 in SW 1.1 mph -999.0 mph 70 % 0 in
18:14 32.2 °F 23.9 °F 23.44 in South 1.7 mph -999.0 mph 71 % 0 in
18:29 31.8 °F 24.5 °F 23.45 in North 3.7 mph -999.0 mph 74 % 0 in
18:44 31.6 °F 25.8 °F 23.44 in NNW 1.7 mph -999.0 mph 79 % 0 in
18:59 31.5 °F 24.8 °F 23.44 in South 2.7 mph -999.0 mph 76 % 0 in
19:15 31.6 °F 23.3 °F 23.44 in NE 3.7 mph -999.0 mph 71 % 0 in
19:30 31.1 °F 23.8 °F 23.43 in SW 3.7 mph -999.0 mph 74 % 0 in
19:45 29.8 °F 25.0 °F 23.43 in South 2.2 mph -999.0 mph 82 % 0 in
20:01 28.6 °F 25.8 °F 23.43 in NNW 1.7 mph -999.0 mph 89 % 0 in
20:16 28.2 °F 25.9 °F 23.42 in WSW 3.2 mph -999.0 mph 91 % 0 in
20:31 27.9 °F 26.1 °F 23.42 in WNW 2.7 mph -999.0 mph 93 % 0 in
20:46 27.7 °F 25.9 °F 23.43 in SE 2.2 mph -999.0 mph 93 % 0 in
21:02 27.9 °F 26.4 °F 23.43 in NNE 1.1 mph -999.0 mph 94 % 0 in
21:17 28.4 °F 26.9 °F 23.42 in NNE 3.2 mph -999.0 mph 94 % 0 in
21:32 28.8 °F 27.0 °F 23.41 in West 1.1 mph -999.0 mph 93 % 0 in
21:47 29.1 °F 27.6 °F 23.41 in NW 4.2 mph -999.0 mph 94 % 0 in
22:03 29.3 °F 28.0 °F 23.41 in WNW 3.7 mph -999.0 mph 95 % 0 in
22:18 29.7 °F 28.7 °F 23.40 in NW 1.7 mph -999.0 mph 96 % 0 in
22:33 30.0 °F 29.0 °F 23.40 in South 2.7 mph -999.0 mph 96 % 0 in
22:49 30.0 °F 29.0 °F 23.40 in NW 3.2 mph -999.0 mph 96 % 0 in
23:04 30.0 °F 29.0 °F 23.39 in NNW 3.2 mph -999.0 mph 96 % 0 in
23:19 30.2 °F 29.5 °F 23.39 in WNW 2.7 mph -999.0 mph 97 % 0 in
23:34 30.6 °F 29.9 °F 23.38 in SE 1.7 mph -999.0 mph 97 % 0 in
23:50 30.6 °F 29.9 °F 23.37 in WNW 2.2 mph -999.0 mph 97 % 0 in
Big Bear CA Weather
Compliments of Weather Underground - 1.5 mb